createdAt,value
2017-12-28T00:02:00.000Z,11.30
2017-12-28T00:04:28.601Z,11.20
2017-12-28T00:06:57.136Z,11.30
2017-12-28T00:09:25.426Z,11.20
2017-12-28T00:11:54.074Z,11.20
2017-12-28T00:14:22.581Z,11.20
2017-12-28T00:16:50.835Z,11.20
2017-12-28T00:19:19.120Z,11.20
2017-12-28T00:21:47.343Z,11.20
2017-12-28T00:24:15.639Z,11.20
2017-12-28T00:26:44.168Z,11.20
2017-12-28T00:29:12.419Z,11.30
2017-12-28T00:31:40.691Z,11.30
2017-12-28T00:34:09.195Z,11.30
2017-12-28T00:36:37.475Z,11.40
2017-12-28T00:39:05.729Z,11.40
2017-12-28T00:41:33.963Z,11.40
2017-12-28T00:44:02.206Z,11.40
2017-12-28T00:46:30.463Z,11.50
2017-12-28T00:48:58.703Z,11.50
2017-12-28T00:51:26.952Z,11.50
2017-12-28T00:53:55.614Z,11.40
2017-12-28T00:56:23.847Z,11.40
2017-12-28T00:58:52.091Z,11.40
2017-12-28T01:01:21.037Z,11.30
2017-12-28T01:03:49.258Z,11.30
2017-12-28T01:06:17.901Z,11.30
2017-12-28T01:08:46.162Z,11.30
2017-12-28T01:11:14.398Z,11.30
2017-12-28T01:13:42.687Z,11.30
2017-12-28T01:16:10.968Z,11.40
2017-12-28T01:18:39.210Z,11.40
2017-12-28T01:21:07.861Z,11.40
2017-12-28T01:23:36.110Z,11.40
2017-12-28T01:26:04.346Z,11.40
2017-12-28T01:28:33.033Z,11.30
2017-12-28T01:31:01.315Z,11.30
2017-12-28T01:33:29.956Z,11.20
2017-12-28T01:35:58.199Z,11.20
2017-12-28T01:38:26.486Z,11.10
2017-12-28T01:40:54.727Z,11.10
2017-12-28T01:43:23.476Z,11.10
2017-12-28T01:45:51.750Z,11.10
2017-12-28T01:48:19.987Z,11.10
2017-12-28T01:50:48.246Z,11.10
2017-12-28T01:53:16.528Z,11.10
2017-12-28T01:55:44.775Z,10.90
2017-12-28T01:58:13.243Z,10.50
2017-12-28T02:00:41.523Z,10.30
2017-12-28T02:03:09.769Z,10.50
2017-12-28T02:05:38.008Z,10.60
2017-12-28T02:08:06.263Z,10.70
2017-12-28T02:10:34.508Z,10.60
2017-12-28T02:13:03.031Z,10.50
2017-12-28T02:15:31.694Z,10.60
2017-12-28T02:17:59.940Z,10.60
2017-12-28T02:20:28.199Z,10.70
2017-12-28T02:22:56.470Z,10.70
2017-12-28T02:25:24.712Z,10.80
2017-12-28T02:27:54.525Z,10.90
2017-12-28T02:30:22.812Z,10.90
2017-12-28T02:32:51.455Z,11.10
2017-12-28T02:35:19.693Z,11.10
2017-12-28T02:37:47.951Z,11.10
2017-12-28T02:40:16.203Z,11.00
2017-12-28T02:42:44.858Z,11.10
2017-12-28T02:45:13.121Z,11.10
2017-12-28T02:47:41.367Z,11.20
2017-12-28T02:50:09.690Z,11.20
2017-12-28T02:52:37.974Z,11.20
2017-12-28T02:55:06.214Z,11.20
2017-12-28T02:57:34.463Z,11.20
2017-12-28T03:00:03.243Z,10.90
2017-12-28T03:02:31.880Z,11.00
2017-12-28T03:05:00.128Z,11.00
2017-12-28T03:07:28.488Z,11.10
2017-12-28T03:09:57.133Z,11.10
2017-12-28T03:12:25.367Z,11.10
2017-12-28T03:14:53.643Z,11.10
2017-12-28T03:17:21.891Z,11.20
2017-12-28T03:19:50.131Z,11.30
2017-12-28T03:22:18.730Z,11.30
2017-12-28T03:24:46.971Z,11.40
2017-12-28T03:27:15.211Z,11.50
2017-12-28T03:29:43.488Z,11.50
2017-12-28T03:32:12.130Z,11.50
2017-12-28T03:34:41.059Z,11.50
2017-12-28T03:37:09.715Z,11.50
2017-12-28T03:39:37.955Z,11.50
2017-12-28T03:42:06.204Z,11.50
2017-12-28T03:44:34.467Z,11.50
2017-12-28T03:47:04.020Z,11.60
2017-12-28T03:49:32.262Z,11.60
2017-12-28T03:52:00.519Z,11.60
2017-12-28T03:54:29.320Z,11.70
2017-12-28T03:56:57.512Z,11.70
2017-12-28T03:59:26.643Z,11.70
2017-12-28T04:01:55.015Z,11.70
2017-12-28T04:04:23.253Z,11.80
2017-12-28T04:06:51.537Z,11.80
2017-12-28T04:09:19.776Z,11.80
2017-12-28T04:11:48.003Z,11.80
2017-12-28T04:14:16.314Z,11.80
2017-12-28T04:16:44.797Z,11.80
2017-12-28T04:19:13.036Z,11.80
2017-12-28T04:21:41.315Z,11.80
2017-12-28T04:24:09.551Z,11.90
2017-12-28T04:26:38.182Z,11.90
2017-12-28T04:29:06.452Z,11.90
2017-12-28T04:31:34.707Z,11.90
2017-12-28T04:34:02.955Z,11.90
2017-12-28T04:36:31.625Z,11.90
2017-12-28T04:38:59.866Z,11.90
2017-12-28T04:41:28.115Z,11.80
2017-12-28T04:43:56.360Z,11.80
2017-12-28T04:46:24.607Z,11.80
2017-12-28T04:48:52.839Z,11.80
2017-12-28T04:51:21.082Z,11.80
2017-12-28T04:53:49.350Z,11.80
2017-12-28T04:56:17.587Z,11.80
2017-12-28T04:58:45.844Z,11.80
2017-12-28T05:01:14.119Z,11.90
2017-12-28T05:03:42.355Z,11.90
2017-12-28T05:06:10.597Z,11.90
2017-12-28T05:08:38.848Z,11.90
2017-12-28T05:11:07.107Z,11.80
2017-12-28T05:13:35.726Z,11.90
2017-12-28T05:16:03.996Z,11.80
2017-12-28T05:18:32.237Z,11.80
2017-12-28T05:21:04.061Z,11.80
2017-12-28T05:23:33.332Z,11.80
2017-12-28T05:26:01.558Z,11.80
2017-12-28T05:28:30.215Z,11.80
2017-12-28T05:30:59.543Z,11.80
2017-12-28T05:33:27.851Z,11.80
2017-12-28T05:35:56.099Z,11.80
2017-12-28T05:38:24.755Z,11.80
2017-12-28T05:40:54.120Z,11.80
2017-12-28T05:43:22.402Z,11.90
2017-12-28T05:45:50.630Z,11.90
2017-12-28T05:48:18.867Z,11.90
2017-12-28T05:50:47.158Z,11.90
2017-12-28T05:53:15.388Z,12.00
2017-12-28T05:55:45.295Z,12.00
2017-12-28T05:58:13.965Z,12.00
2017-12-28T06:00:42.651Z,12.00
2017-12-28T06:03:11.279Z,12.00
2017-12-28T06:05:39.543Z,12.00
2017-12-28T06:08:07.775Z,12.10
2017-12-28T06:10:36.007Z,12.10
2017-12-28T06:13:04.267Z,12.10
2017-12-28T06:15:32.504Z,12.10
2017-12-28T06:18:01.160Z,12.00
2017-12-28T06:20:29.880Z,12.00
2017-12-28T06:22:58.533Z,12.00
2017-12-28T06:25:26.763Z,12.00
2017-12-28T06:27:55.095Z,12.00
2017-12-28T06:30:23.680Z,12.00
2017-12-28T06:32:52.005Z,12.00
2017-12-28T06:35:20.420Z,12.00
2017-12-28T06:37:49.094Z,12.00
2017-12-28T06:40:17.724Z,12.00
2017-12-28T06:42:46.419Z,12.00
2017-12-28T06:45:15.105Z,12.00
2017-12-28T06:47:43.520Z,12.10
2017-12-28T06:50:11.855Z,12.10
2017-12-28T06:52:40.327Z,12.10
2017-12-28T06:55:08.635Z,12.10
2017-12-28T06:57:37.497Z,12.10
2017-12-28T07:00:06.071Z,12.20
2017-12-28T07:02:34.542Z,12.10
2017-12-28T07:05:03.082Z,12.10
2017-12-28T07:07:31.412Z,12.20
2017-12-28T07:10:00.535Z,12.10
2017-12-28T07:12:29.154Z,12.10
2017-12-28T07:14:57.386Z,12.10
2017-12-28T07:17:26.063Z,12.10
2017-12-28T07:19:54.413Z,12.10
2017-12-28T07:22:22.631Z,12.10
2017-12-28T07:24:51.303Z,12.20
2017-12-28T07:27:19.544Z,12.20
2017-12-28T07:29:47.771Z,12.20
2017-12-28T07:32:16.032Z,12.20
2017-12-28T07:34:44.658Z,12.20
2017-12-28T07:37:12.930Z,12.20
2017-12-28T07:39:42.344Z,12.20
2017-12-28T07:42:10.609Z,12.20
2017-12-28T07:44:38.889Z,12.20
2017-12-28T07:47:07.114Z,12.20
2017-12-28T07:49:35.746Z,12.20
2017-12-28T07:52:04.214Z,12.20
2017-12-28T07:54:32.591Z,12.20
2017-12-28T07:57:01.636Z,12.20
2017-12-28T07:59:30.046Z,12.30
2017-12-28T08:02:04.397Z,12.20
2017-12-28T08:04:39.119Z,12.20
2017-12-28T08:07:07.361Z,12.20
2017-12-28T08:09:35.989Z,12.20
2017-12-28T08:12:04.264Z,12.20
2017-12-28T08:14:32.775Z,12.20
2017-12-28T08:17:01.025Z,12.30
2017-12-28T08:19:29.339Z,12.30
2017-12-28T08:21:57.593Z,12.30
2017-12-28T08:24:25.835Z,12.30
2017-12-28T08:26:54.149Z,12.30
2017-12-28T08:29:22.528Z,12.30
2017-12-28T08:31:50.743Z,12.30
2017-12-28T08:34:19.490Z,12.30
2017-12-28T08:36:47.702Z,12.30
2017-12-28T08:39:16.344Z,12.30
2017-12-28T08:41:44.584Z,12.30
2017-12-28T08:44:12.819Z,12.30
2017-12-28T08:46:41.285Z,12.30
2017-12-28T08:49:09.541Z,12.30
2017-12-28T08:51:38.043Z,12.30
2017-12-28T08:54:06.286Z,12.30
2017-12-28T08:56:34.586Z,12.30
2017-12-28T08:59:02.827Z,12.30
2017-12-28T09:01:31.063Z,12.20
2017-12-28T09:03:59.318Z,12.20
2017-12-28T09:06:27.551Z,12.20
2017-12-28T09:08:55.795Z,12.20
2017-12-28T09:11:24.490Z,12.20
2017-12-28T09:13:52.712Z,12.20
2017-12-28T09:16:21.009Z,12.20
2017-12-28T09:18:50.186Z,12.20
2017-12-28T09:21:18.463Z,12.20
2017-12-28T09:23:46.695Z,12.20
2017-12-28T09:26:15.684Z,12.20
2017-12-28T09:28:44.318Z,12.20
2017-12-28T09:31:12.604Z,12.20
2017-12-28T09:33:40.835Z,12.20
2017-12-28T09:36:09.070Z,12.20
2017-12-28T09:38:37.299Z,12.20
2017-12-28T09:41:05.759Z,12.20
2017-12-28T09:43:34.299Z,12.20
2017-12-28T09:46:02.574Z,12.10
2017-12-28T09:48:30.830Z,12.20
2017-12-28T09:50:59.467Z,12.10
2017-12-28T09:53:28.160Z,12.20
2017-12-28T09:55:57.269Z,12.20
2017-12-28T09:58:27.448Z,12.20
2017-12-28T10:00:56.139Z,12.20
2017-12-28T10:03:24.371Z,12.20
2017-12-28T10:05:52.608Z,12.30
2017-12-28T10:08:22.832Z,12.30
2017-12-28T10:10:51.434Z,12.30
2017-12-28T10:13:20.187Z,12.30
2017-12-28T10:15:48.842Z,12.40
2017-12-28T10:18:17.066Z,12.40
2017-12-28T10:20:45.300Z,12.40
2017-12-28T10:23:14.590Z,12.40
2017-12-28T10:25:42.826Z,12.40
2017-12-28T10:28:11.433Z,12.40
2017-12-28T10:30:39.711Z,12.40
2017-12-28T10:33:07.988Z,12.40
2017-12-28T10:35:36.241Z,12.40
2017-12-28T10:38:04.507Z,12.40
2017-12-28T10:40:32.736Z,12.40
2017-12-28T10:43:01.220Z,12.40
2017-12-28T10:45:30.715Z,12.40
2017-12-28T10:47:58.967Z,12.50
2017-12-28T10:50:27.792Z,12.50
2017-12-28T10:52:56.074Z,12.50
2017-12-28T10:55:24.293Z,12.50
2017-12-28T10:57:52.714Z,12.50
2017-12-28T11:00:21.285Z,12.50
2017-12-28T11:02:49.663Z,12.50
2017-12-28T11:05:18.616Z,12.50
2017-12-28T11:07:46.872Z,12.50
2017-12-28T11:10:15.115Z,12.50
2017-12-28T11:12:43.649Z,12.50
2017-12-28T11:15:12.024Z,12.50
2017-12-28T11:17:40.652Z,12.50
2017-12-28T11:20:08.891Z,12.50
2017-12-28T11:22:37.171Z,12.50
2017-12-28T11:25:05.485Z,12.50
2017-12-28T11:27:33.739Z,12.50
2017-12-28T11:30:01.988Z,12.50
2017-12-28T11:32:30.219Z,12.50
2017-12-28T11:34:58.485Z,12.50
2017-12-28T11:37:26.896Z,12.50
2017-12-28T11:39:55.203Z,12.50
2017-12-28T11:42:23.427Z,12.50
2017-12-28T11:44:51.723Z,12.50
2017-12-28T11:47:20.036Z,12.60
2017-12-28T11:49:52.291Z,12.60
2017-12-28T11:52:21.504Z,12.60
2017-12-28T11:54:50.135Z,12.60
2017-12-28T11:57:24.168Z,12.50
2017-12-28T11:59:54.760Z,12.50
2017-12-28T12:02:28.651Z,12.50
2017-12-28T12:05:02.816Z,12.60
2017-12-28T12:07:36.901Z,12.60
2017-12-28T12:10:11.142Z,12.60
2017-12-28T12:12:39.778Z,12.60
2017-12-28T12:15:08.014Z,12.60
2017-12-28T12:17:36.663Z,12.60
2017-12-28T12:20:04.962Z,12.60
2017-12-28T12:22:33.208Z,12.60
2017-12-28T12:25:01.424Z,12.60
2017-12-28T12:27:30.124Z,12.70
2017-12-28T12:29:58.512Z,12.70
2017-12-28T12:32:27.133Z,12.70
2017-12-28T12:34:55.427Z,12.70
2017-12-28T12:37:23.665Z,12.80
2017-12-28T12:39:52.175Z,12.80
2017-12-28T12:42:20.507Z,12.80
2017-12-28T12:44:48.751Z,12.70
2017-12-28T12:47:17.378Z,12.70
2017-12-28T12:49:45.664Z,12.70
2017-12-28T12:52:13.890Z,12.70
2017-12-28T12:54:42.592Z,12.70
2017-12-28T12:57:10.920Z,12.70
2017-12-28T12:59:39.166Z,12.70
2017-12-28T13:02:07.396Z,12.70
2017-12-28T13:04:36.503Z,12.70
2017-12-28T13:07:04.723Z,12.70
2017-12-28T13:09:33.015Z,12.70
2017-12-28T13:12:01.291Z,12.70
2017-12-28T13:14:29.504Z,12.70
2017-12-28T13:16:58.174Z,12.60
2017-12-28T13:19:26.419Z,12.60
2017-12-28T13:21:54.647Z,12.60
2017-12-28T13:24:24.266Z,12.60
2017-12-28T13:26:53.786Z,12.60
2017-12-28T13:29:22.134Z,12.60
2017-12-28T13:31:50.839Z,12.50
2017-12-28T13:34:19.068Z,12.60
2017-12-28T13:36:47.543Z,12.80
2017-12-28T13:39:15.796Z,13.10
2017-12-28T13:41:44.026Z,13.50
2017-12-28T13:44:12.693Z,14.30
2017-12-28T13:46:40.948Z,14.30
2017-12-28T13:49:09.179Z,14.70
2017-12-28T13:51:37.452Z,15.10
2017-12-28T13:54:05.704Z,15.40
2017-12-28T13:56:33.967Z,15.70
2017-12-28T13:59:02.290Z,15.80
2017-12-28T14:01:30.543Z,16.00
2017-12-28T14:03:59.170Z,16.30
2017-12-28T14:06:27.460Z,16.30
2017-12-28T14:08:55.695Z,16.40
2017-12-28T14:11:23.927Z,16.50
2017-12-28T14:13:52.184Z,16.60
2017-12-28T14:16:20.462Z,16.70
2017-12-28T14:18:48.686Z,16.80
2017-12-28T14:21:16.947Z,16.90
2017-12-28T14:23:45.581Z,17.00
2017-12-28T14:26:14.762Z,17.00
2017-12-28T14:28:43.031Z,17.10
2017-12-28T14:31:11.353Z,17.20
2017-12-28T14:33:39.611Z,17.10
2017-12-28T14:36:07.851Z,16.90
2017-12-28T14:38:36.388Z,16.70
2017-12-28T14:41:04.637Z,16.50
2017-12-28T14:43:32.915Z,16.30
2017-12-28T14:46:01.143Z,16.00
2017-12-28T14:48:29.412Z,15.80
2017-12-28T14:50:58.067Z,15.40
2017-12-28T14:53:26.561Z,15.40
2017-12-28T14:55:54.793Z,15.20
2017-12-28T14:58:23.052Z,15.00
2017-12-28T15:00:51.681Z,14.70
2017-12-28T15:03:19.911Z,14.70
2017-12-28T15:05:48.143Z,14.60
2017-12-28T15:08:16.390Z,14.40
2017-12-28T15:10:44.652Z,14.30
2017-12-28T15:13:12.871Z,14.20
2017-12-28T15:15:41.246Z,14.10
2017-12-28T15:18:09.694Z,14.00
2017-12-28T15:20:38.110Z,14.00
2017-12-28T15:23:06.585Z,13.90
2017-12-28T15:25:35.741Z,13.80
2017-12-28T15:28:04.367Z,13.80
2017-12-28T15:30:32.591Z,13.70
2017-12-28T15:33:00.919Z,13.70
2017-12-28T15:35:29.155Z,13.60
2017-12-28T15:37:57.424Z,13.60
2017-12-28T15:40:26.039Z,13.50
2017-12-28T15:42:54.279Z,13.50
2017-12-28T15:45:22.541Z,13.40
2017-12-28T15:47:51.183Z,13.30
2017-12-28T15:50:19.437Z,13.30
2017-12-28T15:52:47.688Z,13.20
2017-12-28T15:55:15.923Z,13.10
2017-12-28T15:57:44.176Z,13.10
2017-12-28T16:00:12.676Z,13.10
2017-12-28T16:02:40.917Z,13.00
2017-12-28T16:05:09.167Z,13.00
2017-12-28T16:07:37.408Z,12.90
2017-12-28T16:10:05.685Z,12.90
2017-12-28T16:12:33.944Z,12.90
2017-12-28T16:15:02.220Z,12.90
2017-12-28T16:17:30.484Z,12.90
2017-12-28T16:19:58.720Z,12.90
2017-12-28T16:22:26.951Z,12.80
2017-12-28T16:24:55.222Z,12.80
2017-12-28T16:27:23.584Z,12.80
2017-12-28T16:29:51.817Z,12.70
2017-12-28T16:32:20.455Z,12.80
2017-12-28T16:34:48.686Z,12.70
2017-12-28T16:37:16.923Z,12.70
2017-12-28T16:39:45.186Z,12.70
2017-12-28T16:42:13.415Z,12.70
2017-12-28T16:44:41.948Z,12.60
2017-12-28T16:47:10.212Z,12.60
2017-12-28T16:49:39.384Z,12.60
2017-12-28T16:52:07.620Z,12.50
2017-12-28T16:54:36.301Z,12.50
2017-12-28T16:57:04.531Z,12.50
2017-12-28T16:59:32.776Z,12.50
2017-12-28T17:02:01.038Z,12.50
2017-12-28T17:04:29.670Z,12.50
2017-12-28T17:06:57.959Z,12.50
2017-12-28T17:09:26.183Z,12.50
2017-12-28T17:11:54.423Z,12.30
2017-12-28T17:14:22.675Z,12.40
2017-12-28T17:16:50.935Z,12.40
2017-12-28T17:19:19.185Z,12.40
2017-12-28T17:21:47.836Z,12.40
2017-12-28T17:24:16.096Z,12.40
2017-12-28T17:26:44.583Z,12.30
2017-12-28T17:29:12.876Z,12.30
2017-12-28T17:31:41.143Z,12.30
2017-12-28T17:34:09.406Z,12.30
2017-12-28T17:36:37.657Z,12.30
2017-12-28T17:39:05.903Z,12.30
2017-12-28T17:41:34.528Z,12.20
2017-12-28T17:44:02.804Z,12.20
2017-12-28T17:46:31.060Z,12.20
2017-12-28T17:48:59.294Z,12.20
2017-12-28T17:51:27.533Z,12.20
2017-12-28T17:53:55.808Z,12.20
2017-12-28T17:56:26.149Z,12.20
2017-12-28T17:58:54.497Z,12.20
2017-12-28T18:01:22.737Z,12.20
2017-12-28T18:03:51.418Z,12.10
2017-12-28T18:06:19.644Z,12.10
2017-12-28T18:08:47.887Z,12.10
2017-12-28T18:11:16.142Z,12.10
2017-12-28T18:13:44.782Z,12.10
2017-12-28T18:16:13.076Z,12.10
2017-12-28T18:18:41.567Z,12.10
2017-12-28T18:21:09.824Z,12.00
2017-12-28T18:23:38.341Z,12.10
2017-12-28T18:26:06.600Z,12.00
2017-12-28T18:28:34.886Z,12.10
2017-12-28T18:31:03.516Z,12.00
2017-12-28T18:33:31.760Z,12.00
2017-12-28T18:36:00.388Z,12.00
2017-12-28T18:38:28.658Z,12.00
2017-12-28T18:40:56.899Z,11.90
2017-12-28T18:43:25.131Z,11.80
2017-12-28T18:45:53.395Z,11.80
2017-12-28T18:48:21.639Z,11.70
2017-12-28T18:50:49.888Z,11.70
2017-12-28T18:53:18.420Z,11.70
2017-12-28T18:55:46.643Z,11.70
2017-12-28T18:58:15.280Z,11.80
2017-12-28T19:00:43.541Z,11.80
2017-12-28T19:03:11.844Z,11.80
2017-12-28T19:05:40.095Z,11.80
2017-12-28T19:08:08.332Z,11.80
2017-12-28T19:10:36.963Z,11.70
2017-12-28T19:13:05.211Z,11.70
2017-12-28T19:15:33.495Z,11.70
2017-12-28T19:18:01.723Z,11.70
2017-12-28T19:20:29.962Z,11.70
2017-12-28T19:22:58.196Z,11.60
2017-12-28T19:25:26.821Z,11.60
2017-12-28T19:27:55.098Z,11.60
2017-12-28T19:30:23.338Z,11.60
2017-12-28T19:32:51.985Z,11.60
2017-12-28T19:35:20.241Z,11.60
2017-12-28T19:37:48.467Z,11.60
2017-12-28T19:40:16.715Z,11.60
2017-12-28T19:42:44.990Z,11.60
2017-12-28T19:45:13.226Z,11.70
2017-12-28T19:47:41.468Z,11.60
2017-12-28T19:50:10.436Z,11.50
2017-12-28T19:52:38.667Z,11.50
2017-12-28T19:55:06.912Z,11.50
2017-12-28T19:57:35.603Z,11.50
2017-12-28T20:00:04.266Z,11.50
2017-12-28T20:02:33.139Z,11.50
2017-12-28T20:05:01.411Z,11.50
2017-12-28T20:07:29.630Z,11.50
2017-12-28T20:09:58.551Z,11.50
2017-12-28T20:12:26.799Z,11.50
2017-12-28T20:14:55.040Z,11.50
2017-12-28T20:17:23.639Z,11.50
2017-12-28T20:19:52.840Z,11.50
2017-12-28T20:22:21.096Z,11.50
2017-12-28T20:24:49.683Z,11.50
2017-12-28T20:27:18.267Z,11.50
2017-12-28T20:29:46.503Z,11.50
2017-12-28T20:32:15.075Z,11.50
2017-12-28T20:34:43.324Z,11.50
2017-12-28T20:37:11.970Z,11.50
2017-12-28T20:39:40.242Z,11.50
2017-12-28T20:42:08.489Z,11.50
2017-12-28T20:44:36.753Z,11.50
2017-12-28T20:47:05.026Z,11.50
2017-12-28T20:49:33.256Z,11.60
2017-12-28T20:52:01.630Z,11.60
2017-12-28T20:54:29.904Z,11.60
2017-12-28T20:56:58.118Z,11.60
2017-12-28T20:59:26.778Z,11.60
2017-12-28T21:01:55.011Z,11.70
2017-12-28T21:04:23.243Z,11.70
2017-12-28T21:06:51.501Z,11.60
2017-12-28T21:09:20.344Z,11.60
2017-12-28T21:11:48.627Z,11.60
2017-12-28T21:14:16.896Z,11.60
2017-12-28T21:16:45.159Z,11.60
2017-12-28T21:19:13.397Z,11.60
2017-12-28T21:21:41.647Z,11.60
2017-12-28T21:24:09.879Z,11.60
2017-12-28T21:26:38.832Z,11.50
2017-12-28T21:29:07.076Z,11.50
2017-12-28T21:31:35.331Z,11.50
2017-12-28T21:34:03.582Z,11.50
2017-12-28T21:36:32.263Z,11.50
2017-12-28T21:39:00.891Z,11.60
2017-12-28T21:41:29.130Z,11.60
2017-12-28T21:43:57.772Z,12.40
2017-12-28T21:46:26.044Z,12.40
2017-12-28T21:48:54.280Z,12.80
2017-12-28T21:51:22.944Z,13.70
2017-12-28T21:53:52.128Z,13.70
2017-12-28T21:56:20.364Z,14.10
2017-12-28T21:58:48.768Z,14.50
2017-12-28T22:01:17.012Z,14.60
2017-12-28T22:03:45.261Z,14.60
2017-12-28T22:06:13.890Z,14.20
2017-12-28T22:08:42.128Z,14.20
2017-12-28T22:11:10.404Z,14.00
2017-12-28T22:13:39.841Z,13.80
2017-12-28T22:16:08.119Z,13.70
2017-12-28T22:18:36.390Z,13.50
2017-12-28T22:21:04.656Z,13.50
2017-12-28T22:23:32.961Z,13.60
2017-12-28T22:26:01.192Z,13.50
2017-12-28T22:28:29.440Z,13.50
2017-12-28T22:30:57.676Z,13.40
2017-12-28T22:33:25.942Z,13.30
2017-12-28T22:35:54.174Z,13.10
2017-12-28T22:38:22.828Z,13.00
2017-12-28T22:40:51.312Z,13.00
2017-12-28T22:43:19.586Z,12.90
2017-12-28T22:45:47.811Z,12.80
2017-12-28T22:48:16.055Z,12.70
2017-12-28T22:50:44.321Z,12.60
2017-12-28T22:53:12.557Z,12.50
2017-12-28T22:55:40.799Z,12.40
2017-12-28T22:58:09.462Z,12.30
2017-12-28T23:00:37.696Z,12.30
2017-12-28T23:03:05.949Z,12.30
2017-12-28T23:05:34.611Z,12.20
2017-12-28T23:08:03.237Z,12.00
2017-12-28T23:10:31.532Z,12.00
2017-12-28T23:12:59.720Z,12.00
2017-12-28T23:15:28.198Z,11.90
2017-12-28T23:17:56.471Z,11.90
2017-12-28T23:20:24.695Z,11.90
2017-12-28T23:22:52.926Z,11.90
2017-12-28T23:25:22.328Z,11.90
2017-12-28T23:27:50.616Z,11.90
2017-12-28T23:30:18.849Z,11.80
2017-12-28T23:32:47.223Z,11.80
2017-12-28T23:35:15.514Z,11.80
2017-12-28T23:37:43.750Z,11.80
2017-12-28T23:40:12.398Z,11.80
2017-12-28T23:42:40.667Z,11.80
2017-12-28T23:45:08.895Z,11.80
2017-12-28T23:47:37.216Z,11.80
2017-12-28T23:50:05.454Z,11.80
2017-12-28T23:52:33.691Z,11.80
2017-12-28T23:55:02.423Z,11.70
2017-12-28T23:57:30.720Z,11.70
2017-12-28T23:59:58.957Z,11.70
